createdAt,value
2022-10-17T00:02:55.526Z,97496.00
2022-10-17T00:07:56.492Z,97492.00
2022-10-17T00:12:57.231Z,97507.00
2022-10-17T00:17:58.765Z,97506.00
2022-10-17T00:22:59.819Z,97506.00
2022-10-17T00:28:00.975Z,97509.00
2022-10-17T00:33:02.195Z,97510.00
2022-10-17T00:38:02.986Z,97502.00
2022-10-17T00:43:03.746Z,97513.00
2022-10-17T00:48:08.675Z,97514.00
2022-10-17T00:53:10.233Z,97517.00
2022-10-17T00:58:11.414Z,97517.00
2022-10-17T01:03:12.587Z,97515.00
2022-10-17T01:08:14.016Z,97502.00
2022-10-17T01:16:54.654Z,97513.00
2022-10-17T01:22:22.959Z,97512.00
2022-10-17T01:28:55.236Z,97507.00
2022-10-17T01:35:53.235Z,97523.00
2022-10-17T01:41:03.053Z,97519.00
2022-10-17T01:46:24.469Z,97522.00
2022-10-17T01:51:33.719Z,97511.00
2022-10-17T01:56:37.386Z,97512.00
2022-10-17T02:01:41.487Z,97514.00
2022-10-17T02:06:42.376Z,97510.00
2022-10-17T02:12:03.580Z,97505.00
2022-10-17T02:17:18.992Z,97508.00
2022-10-17T02:22:35.105Z,97513.00
2022-10-17T02:27:52.039Z,97502.00
2022-10-17T02:33:01.107Z,97503.00
2022-10-17T02:38:06.032Z,97497.00
2022-10-17T02:43:07.011Z,97502.00
2022-10-17T02:48:17.378Z,97502.00
2022-10-17T02:53:30.083Z,97503.00
2022-10-17T02:58:34.314Z,97517.00
2022-10-17T03:03:35.404Z,97514.00
2022-10-17T03:13:39.850Z,97507.00
2022-10-17T03:18:41.097Z,97520.00
2022-10-17T03:23:42.028Z,97518.00
2022-10-17T03:28:43.571Z,97529.00
2022-10-17T03:33:45.295Z,97533.00
2022-10-17T03:38:47.383Z,97542.00
2022-10-17T03:43:48.579Z,97537.00
2022-10-17T03:48:49.793Z,97542.00
2022-10-17T03:53:51.075Z,97540.00
2022-10-17T03:58:52.083Z,97546.00
2022-10-17T04:03:56.281Z,97553.00
2022-10-17T04:08:57.387Z,97553.00
2022-10-17T04:14:09.783Z,97558.00
2022-10-17T04:19:12.828Z,97556.00
2022-10-17T04:24:16.378Z,97565.00
2022-10-17T04:30:59.075Z,97570.00
2022-10-17T04:36:07.512Z,97572.00
2022-10-17T04:41:12.746Z,97571.00
2022-10-17T04:46:14.744Z,97566.00
2022-10-17T04:51:18.818Z,97570.00
2022-10-17T04:56:43.669Z,97559.00
2022-10-17T05:01:44.633Z,97570.00
2022-10-17T05:06:45.622Z,97566.00
2022-10-17T05:12:57.925Z,97580.00
2022-10-17T05:18:02.922Z,97579.00
2022-10-17T05:23:04.095Z,97578.00
2022-10-17T05:28:08.899Z,97578.00
2022-10-17T05:33:14.232Z,97574.00
2022-10-17T05:38:15.155Z,97570.00
2022-10-17T05:43:16.560Z,97587.00
2022-10-17T05:48:19.055Z,97593.00
2022-10-17T05:53:19.889Z,97587.00
2022-10-17T05:58:45.429Z,97589.00
2022-10-17T06:04:00.873Z,97594.00
2022-10-17T06:09:02.234Z,97589.00
2022-10-17T06:14:07.937Z,97608.00
2022-10-17T06:19:11.587Z,97613.00
2022-10-17T06:24:12.708Z,97620.00
2022-10-17T06:29:15.683Z,97625.00
2022-10-17T06:34:21.344Z,97625.00
2022-10-17T06:39:26.086Z,97630.00
2022-10-17T06:44:36.574Z,97626.00
2022-10-17T06:49:56.150Z,97624.00
2022-10-17T06:55:14.121Z,97646.00
2022-10-17T07:01:18.136Z,97660.00
2022-10-17T07:06:23.591Z,97664.00
2022-10-17T07:11:25.380Z,97671.00
2022-10-17T07:16:27.355Z,97680.00
2022-10-17T07:21:39.103Z,97681.00
2022-10-17T07:26:42.765Z,97680.00
2022-10-17T07:31:47.995Z,97673.00
2022-10-17T07:36:51.334Z,97685.00
2022-10-17T07:41:52.988Z,97697.00
2022-10-17T07:46:54.470Z,97700.00
2022-10-17T07:51:56.269Z,97699.00
2022-10-17T07:56:57.720Z,97706.00
2022-10-17T08:01:59.249Z,97709.00
2022-10-17T08:07:18.611Z,97704.00
2022-10-17T08:12:24.327Z,97705.00
2022-10-17T08:17:26.154Z,97705.00
2022-10-17T08:22:27.753Z,97710.00
2022-10-17T08:27:29.457Z,97702.00
2022-10-17T08:32:30.977Z,97699.00
2022-10-17T08:37:34.592Z,97699.00
2022-10-17T08:42:52.855Z,97711.00
2022-10-17T08:48:03.667Z,97715.00
2022-10-17T08:54:44.797Z,97725.00
2022-10-17T08:59:52.786Z,97725.00
2022-10-17T09:05:26.338Z,97723.00
2022-10-17T09:10:52.042Z,97732.00
2022-10-17T09:19:16.873Z,97726.00
2022-10-17T09:24:32.157Z,97717.00
2022-10-17T09:29:37.965Z,97722.00
2022-10-17T09:34:41.512Z,97748.00
2022-10-17T09:39:43.714Z,97748.00
2022-10-17T09:46:31.210Z,97750.00
2022-10-17T09:51:32.767Z,97751.00
2022-10-17T09:57:06.692Z,97753.00
2022-10-17T10:02:20.073Z,97766.00
2022-10-17T10:07:25.638Z,97774.00
2022-10-17T10:12:36.330Z,97768.00
2022-10-17T10:17:42.052Z,97764.00
2022-10-17T10:22:43.036Z,97769.00
2022-10-17T10:27:46.400Z,97771.00
2022-10-17T10:32:49.290Z,97778.00
2022-10-17T10:37:53.825Z,97782.00
2022-10-17T10:43:01.288Z,97785.00
2022-10-17T10:48:23.294Z,97789.00
2022-10-17T10:54:31.663Z,97786.00
2022-10-17T10:59:42.610Z,97799.00
2022-10-17T11:04:54.421Z,97791.00
2022-10-17T11:10:09.674Z,97798.00
2022-10-17T11:16:06.056Z,97798.00
2022-10-17T11:21:28.262Z,97798.00
2022-10-17T11:26:35.003Z,97787.00
2022-10-17T11:31:43.215Z,97789.00
2022-10-17T11:36:48.827Z,97801.00
2022-10-17T11:42:00.890Z,97802.00
2022-10-17T11:49:46.970Z,97802.00
2022-10-17T11:54:54.867Z,97806.00
2022-10-17T12:00:18.529Z,97810.00
2022-10-17T12:05:56.547Z,97812.00
2022-10-17T12:11:06.975Z,97812.00
2022-10-17T12:16:54.063Z,97810.00
2022-10-17T12:22:18.798Z,97819.00
2022-10-17T12:28:50.764Z,97817.00
2022-10-17T12:34:00.935Z,97811.00
2022-10-17T12:39:47.453Z,97811.00
2022-10-17T12:44:51.095Z,97799.00
2022-10-17T12:49:56.465Z,97796.00
2022-10-17T12:55:28.374Z,97793.00
2022-10-17T13:01:19.124Z,97792.00
2022-10-17T13:06:27.889Z,97807.00
2022-10-17T13:11:33.145Z,97802.00
2022-10-17T13:16:36.986Z,97809.00
2022-10-17T13:21:37.936Z,97806.00
2022-10-17T13:26:44.725Z,97813.00
2022-10-17T13:32:00.994Z,97822.00
2022-10-17T13:37:09.492Z,97825.00
2022-10-17T13:42:27.344Z,97829.00
2022-10-17T13:47:35.893Z,97839.00
2022-10-17T13:52:36.750Z,97841.00
2022-10-17T13:57:37.526Z,97844.00
2022-10-17T14:02:40.324Z,97862.00
2022-10-17T14:08:15.122Z,97860.00
2022-10-17T14:13:23.434Z,97854.00
2022-10-17T14:18:30.841Z,97867.00
2022-10-17T14:23:39.073Z,97869.00
2022-10-17T14:28:42.007Z,97861.00
2022-10-17T14:33:50.825Z,97858.00
2022-10-17T14:38:52.279Z,97854.00
2022-10-17T14:44:06.071Z,97849.00
2022-10-17T14:49:19.435Z,97857.00
2022-10-17T14:54:28.990Z,97869.00
2022-10-17T14:59:52.816Z,97870.00
2022-10-17T15:04:55.276Z,97867.00
2022-10-17T15:09:56.412Z,97870.00
2022-10-17T15:14:57.637Z,97880.00
2022-10-17T15:19:58.389Z,97888.00
2022-10-17T15:24:59.165Z,97884.00
2022-10-17T15:29:59.938Z,97903.00
2022-10-17T15:35:01.213Z,97909.00
2022-10-17T15:40:02.440Z,97905.00
2022-10-17T15:45:04.475Z,97910.00
2022-10-17T15:50:07.964Z,97913.00
2022-10-17T15:55:10.327Z,97916.00
2022-10-17T16:00:16.710Z,97919.00
2022-10-17T16:05:22.465Z,97915.00
2022-10-17T16:10:24.758Z,97928.00
2022-10-17T16:15:27.293Z,97919.00
2022-10-17T16:20:28.133Z,97925.00
2022-10-17T16:25:30.300Z,97925.00
2022-10-17T16:30:32.080Z,97933.00
2022-10-17T16:35:36.592Z,97926.00
2022-10-17T16:40:39.508Z,97940.00
2022-10-17T16:45:40.745Z,97943.00
2022-10-17T16:50:41.528Z,97942.00
2022-10-17T16:55:42.283Z,97942.00
2022-10-17T17:00:43.141Z,97956.00
2022-10-17T17:05:52.576Z,97951.00
2022-10-17T17:10:54.650Z,97959.00
2022-10-17T17:16:07.305Z,97967.00
2022-10-17T17:21:09.853Z,97966.00
2022-10-17T17:26:12.921Z,97959.00
2022-10-17T17:31:16.476Z,97966.00
2022-10-17T17:36:20.930Z,97971.00
2022-10-17T17:41:22.340Z,97970.00
2022-10-17T17:46:24.202Z,97967.00
2022-10-17T17:51:28.300Z,97973.00
2022-10-17T17:56:30.114Z,97985.00
2022-10-17T18:01:37.034Z,97991.00
2022-10-17T18:06:38.821Z,98001.00
2022-10-17T18:11:39.654Z,97989.00
2022-10-17T18:16:41.467Z,98007.00
2022-10-17T18:21:43.510Z,98000.00
2022-10-17T18:26:44.338Z,98001.00
2022-10-17T18:31:45.232Z,98001.00
2022-10-17T18:36:46.485Z,98005.00
2022-10-17T18:41:47.221Z,98003.00
2022-10-17T18:47:02.899Z,98002.00
2022-10-17T18:52:05.130Z,98001.00
2022-10-17T18:57:06.201Z,98003.00
2022-10-17T19:02:09.105Z,98013.00
2022-10-17T19:07:10.333Z,98003.00
2022-10-17T19:12:11.096Z,98001.00
2022-10-17T19:17:11.842Z,97993.00
2022-10-17T19:22:12.611Z,98004.00
2022-10-17T19:27:13.372Z,98010.00
2022-10-17T19:32:17.898Z,98003.00
2022-10-17T19:37:22.209Z,98006.00
2022-10-17T19:42:23.001Z,98006.00
2022-10-17T19:47:24.316Z,98008.00
2022-10-17T19:52:25.095Z,98008.00
2022-10-17T19:57:25.866Z,98005.00
2022-10-17T20:02:26.594Z,98002.00
2022-10-17T20:07:27.445Z,97993.00
2022-10-17T20:12:28.490Z,97991.00
2022-10-17T20:17:29.580Z,97992.00
2022-10-17T20:22:30.568Z,97987.00
2022-10-17T20:27:32.184Z,97987.00
2022-10-17T20:32:34.305Z,97983.00
2022-10-17T20:37:41.521Z,97999.00
2022-10-17T20:42:45.056Z,98004.00
2022-10-17T20:47:52.348Z,98002.00
2022-10-17T20:53:10.984Z,98002.00
2022-10-17T20:58:25.718Z,98010.00
2022-10-17T21:03:26.643Z,98005.00
2022-10-17T21:08:27.695Z,98010.00
2022-10-17T21:13:28.470Z,98003.00
2022-10-17T21:18:29.233Z,98010.00
2022-10-17T21:23:30.001Z,98013.00
2022-10-17T21:28:31.616Z,98005.00
2022-10-17T21:33:32.409Z,98023.00
2022-10-17T21:38:40.085Z,98026.00
2022-10-17T21:43:41.796Z,98031.00
2022-10-17T21:48:43.510Z,98027.00
2022-10-17T21:53:45.520Z,98020.00
2022-10-17T21:58:47.295Z,98023.00
2022-10-17T22:03:50.781Z,98018.00
2022-10-17T22:08:52.308Z,98024.00
2022-10-17T22:14:00.981Z,98014.00
2022-10-17T22:19:06.220Z,98010.00
2022-10-17T22:24:10.879Z,98007.00
2022-10-17T22:29:12.230Z,98010.00
2022-10-17T22:34:15.192Z,98006.00
2022-10-17T22:39:16.172Z,98005.00
2022-10-17T22:44:16.967Z,98005.00
2022-10-17T22:49:17.720Z,97995.00
2022-10-17T22:54:18.854Z,98003.00
2022-10-17T22:59:19.746Z,98005.00
2022-10-17T23:04:20.557Z,98010.00
2022-10-17T23:09:21.457Z,98007.00
2022-10-17T23:14:22.229Z,97997.00
2022-10-17T23:19:22.961Z,97987.00
2022-10-17T23:24:23.775Z,97979.00
2022-10-17T23:29:25.212Z,97986.00
2022-10-17T23:34:27.327Z,97973.00
2022-10-17T23:39:28.315Z,97975.00
2022-10-17T23:44:29.118Z,97965.00
2022-10-17T23:49:29.901Z,97961.00
2022-10-17T23:54:31.082Z,97968.00
2022-10-17T23:59:31.983Z,97966.00
